Time;durP1;ratioP1;P1;durP2;ratioP2;P2;SDS_P1;SDS_P2;PMS_P1;PMS_P2;Temp;Humidity;BMP_temperature;BMP_pressure;BME280_temperature;BME280_humidity;BME280_pressure;Samples;Min_cycle;Max_cycle;Signal;HPM_P1;HPM_P2
2024/01/03 00:03:12;;;;;;;0.30;0.30;;;;;;;9.88;61.43;97615.94;10520957;28;20055;-61
2024/01/03 00:08:26;;;;;;;1.83;0.70;;;;;;;9.90;60.69;97624.44;10502000;28;20054;-61
2024/01/03 00:13:34;;;;;;;0.35;0.30;;;;;;;9.98;60.37;97620.16;10486762;28;20351;-62
2024/01/03 00:18:43;;;;;;;2.13;0.30;;;;;;;10.05;60.17;97602.97;10517196;28;20557;-62
2024/01/03 00:24:05;;;;;;;2.42;0.50;;;;;;;10.06;59.30;97588.09;10519906;28;20592;-62
2024/01/03 00:30:06;;;;;;;0.38;0.38;;;;;;;10.02;59.66;97621.50;10501170;28;20052;-61
2024/01/03 00:35:09;;;;;;;4.13;0.80;;;;;;;10.08;59.84;97628.75;10419207;28;20040;-62
2024/01/03 00:40:33;;;;;;;1.27;0.60;;;;;;;10.12;59.14;97618.84;10535081;27;20150;-61
2024/01/03 00:45:35;;;;;;;2.65;0.77;;;;;;;10.12;59.98;97674.53;10517290;28;20139;-62
2024/01/03 00:50:37;;;;;;;0.40;0.40;;;;;;;8.65;67.62;97709.72;10514964;28;20060;-62
2024/01/03 00:55:41;;;;;;;0.10;0.10;;;;;;;8.31;67.26;97697.97;10517618;28;20101;-62
2024/01/03 01:00:43;;;;;;;0.22;0.22;;;;;;;8.26;66.38;97703.56;10516977;28;20143;-62
2024/01/03 01:05:45;;;;;;;0.20;0.20;;;;;;;8.28;65.55;97682.63;10516206;28;20173;-61
2024/01/03 01:10:48;;;;;;;0.85;0.17;;;;;;;8.20;65.76;97691.06;10517219;28;20496;-61
2024/01/03 01:15:50;;;;;;;1.13;0.73;;;;;;;8.21;65.95;97687.53;10494465;28;20981;-62
2024/01/03 01:20:52;;;;;;;1.17;0.63;;;;;;;8.38;66.31;97699.09;10516608;28;20036;-62
2024/01/03 01:25:54;;;;;;;4.00;0.63;;;;;;;8.63;66.48;97693.41;10516358;28;20145;-61
2024/01/03 01:30:56;;;;;;;1.10;0.50;;;;;;;8.85;66.28;97690.59;10497771;28;20363;-61
2024/01/03 01:35:58;;;;;;;3.25;0.57;;;;;;;9.04;65.89;97687.97;10515491;28;20112;-62
2024/01/03 01:41:00;;;;;;;0.98;0.60;;;;;;;9.18;65.61;97700.59;10516673;28;20074;-62
2024/01/03 01:46:02;;;;;;;1.27;0.43;;;;;;;9.25;65.28;97693.06;10498029;28;20576;-62
2024/01/03 01:51:05;;;;;;;1.02;0.80;;;;;;;9.35;64.54;97699.09;10514053;28;20039;-62
2024/01/03 01:56:09;;;;;;;3.20;0.65;;;;;;;9.39;64.36;97690.03;10515470;28;20127;-62
2024/01/03 02:01:12;;;;;;;1.17;0.50;;;;;;;9.34;63.91;97700.09;10496813;28;20483;-62
2024/01/03 02:06:15;;;;;;;1.45;0.80;;;;;;;9.52;63.60;97696.59;10483403;28;20926;-62
2024/01/03 02:11:17;;;;;;;1.05;0.40;;;;;;;9.59;63.20;97700.31;10495429;28;20047;-61
2024/01/03 02:16:20;;;;;;;2.97;0.65;;;;;;;9.54;63.32;97701.72;10498017;28;20099;-61
2024/01/03 02:21:21;;;;;;;1.42;0.70;;;;;;;9.43;63.08;97710.50;10479279;28;20046;-61
2024/01/03 02:26:23;;;;;;;4.57;1.40;;;;;;;9.48;62.86;97705.69;10530979;28;20070;-61
2024/01/03 02:31:31;;;;;;;2.17;0.40;;;;;;;9.38;62.76;97702.25;10497050;28;20419;-61
2024/01/03 02:36:33;;;;;;;6.28;0.75;;;;;;;9.40;62.41;97705.53;10513682;28;20080;-62
2024/01/03 02:41:35;;;;;;;0.35;0.35;;;;;;;9.50;62.39;97695.94;10513859;28;20420;-61
2024/01/03 02:46:37;;;;;;;1.52;0.43;;;;;;;9.48;62.42;97710.09;10513484;28;20054;-62
2024/01/03 02:51:39;;;;;;;1.20;0.40;;;;;;;9.54;62.24;97697.28;10479050;28;20048;-61
2024/01/03 02:56:41;;;;;;;2.25;0.75;;;;;;;9.56;62.01;97705.00;10513636;28;20676;-61
2024/01/03 03:01:43;;;;;;;1.63;0.80;;;;;;;9.57;61.97;97704.03;10513192;28;20044;-62
2024/01/03 03:06:45;;;;;;;6.45;0.73;;;;;;;9.49;61.71;97711.72;10513998;28;20048;-61
2024/01/03 03:11:47;;;;;;;1.60;0.80;;;;;;;9.40;61.48;97717.78;10514032;28;20147;-62
2024/01/03 03:16:49;;;;;;;2.05;0.70;;;;;;;9.58;61.62;97722.16;10527846;28;20123;-63
2024/01/03 03:21:51;;;;;;;2.78;1.00;;;;;;;9.55;61.53;97701.56;10513039;28;20048;-61
2024/01/03 03:26:55;;;;;;;4.10;1.08;;;;;;;9.57;61.13;97714.47;10513534;28;20032;-61
2024/01/03 03:31:57;;;;;;;1.73;1.00;;;;;;;9.46;60.97;97705.00;10514889;28;20055;-62
2024/01/03 03:37:00;;;;;;;4.60;1.65;;;;;;;9.63;61.00;97717.34;10503592;28;20036;-62
2024/01/03 03:42:02;;;;;;;1.73;0.65;;;;;;;9.81;60.82;97717.47;10520800;28;20581;-62
2024/01/03 03:47:04;;;;;;;2.85;0.70;;;;;;;9.69;60.48;97716.00;10503586;28;20040;-61
2024/01/03 03:52:06;;;;;;;3.42;1.20;;;;;;;9.67;60.36;97722.34;10521925;28;20083;-62
2024/01/03 03:57:09;;;;;;;1.63;0.82;;;;;;;9.62;60.54;97726.16;10521973;28;20129;-61
2024/01/03 04:02:11;;;;;;;2.67;0.70;;;;;;;9.56;60.47;97715.44;10519960;28;20612;-61
2024/01/03 04:07:13;;;;;;;2.03;0.88;;;;;;;9.37;60.13;97721.50;10521178;28;20480;-61
2024/01/03 04:12:15;;;;;;;3.55;1.27;;;;;;;9.54;60.12;97741.66;10534747;27;20048;-62
2024/01/03 04:17:18;;;;;;;1.70;0.80;;;;;;;9.53;59.62;97741.78;10520924;28;20135;-61
2024/01/03 04:22:20;;;;;;;4.30;1.23;;;;;;;9.46;59.88;97732.88;10520250;28;20051;-62
2024/01/03 04:27:22;;;;;;;1.08;0.77;;;;;;;9.46;59.73;97765.00;10520247;28;20101;-62
2024/01/03 04:32:24;;;;;;;2.35;1.35;;;;;;;9.51;60.32;97736.72;10500707;28;20156;-61
2024/01/03 04:37:27;;;;;;;2.42;0.98;;;;;;;9.60;60.20;97732.47;10517987;28;20056;-61
2024/01/03 04:42:29;;;;;;;3.67;1.08;;;;;;;9.44;59.75;97768.72;10518389;28;21032;-61
2024/01/03 04:47:32;;;;;;;1.67;0.95;;;;;;;9.56;60.13;97746.75;10517870;28;20441;-61
2024/01/03 04:52:34;;;;;;;2.70;1.35;;;;;;;9.46;60.27;97733.69;10500318;28;20139;-61
2024/01/03 04:57:36;;;;;;;3.08;1.00;;;;;;;9.56;60.30;97746.75;10519236;28;20040;-61
2024/01/03 05:02:38;;;;;;;3.25;0.90;;;;;;;9.58;60.13;97743.03;10482642;28;20048;-62
2024/01/03 05:07:41;;;;;;;4.03;1.90;;;;;;;9.46;60.23;97732.88;10518304;28;20586;-62
2024/01/03 05:12:43;;;;;;;2.13;1.17;;;;;;;9.53;59.93;97747.00;10516810;28;20141;-62
2024/01/03 05:17:46;;;;;;;4.22;1.33;;;;;;;9.51;59.70;97743.72;10517206;28;20075;-61
2024/01/03 05:22:49;;;;;;;1.85;1.00;;;;;;;9.71;59.41;97734.94;10515938;28;20547;-62
2024/01/03 05:27:51;;;;;;;2.08;1.02;;;;;;;9.65;59.12;97730.25;10517475;28;20055;-62
2024/01/03 05:32:53;;;;;;;3.30;1.05;;;;;;;9.80;58.99;97747.16;10517139;28;20070;-61
2024/01/03 05:37:55;;;;;;;3.55;1.25;;;;;;;9.88;59.14;97747.28;10516841;28;20583;-62
2024/01/03 05:42:57;;;;;;;3.30;1.10;;;;;;;9.76;58.88;97758.03;10515481;28;20127;-61
2024/01/03 05:47:59;;;;;;;7.00;1.50;;;;;;;9.95;58.93;97747.56;10517374;28;20044;-62
2024/01/03 05:53:02;;;;;;;3.13;1.10;;;;;;;9.90;59.06;97747.97;10516363;28;20048;-62
2024/01/03 05:58:04;;;;;;;4.82;1.73;;;;;;;9.90;59.18;97744.53;10514908;28;20066;-62
2024/01/03 06:03:06;;;;;;;2.88;1.15;;;;;;;9.82;59.10;97754.84;10515925;28;20048;-61
2024/01/03 06:08:08;;;;;;;7.05;0.95;;;;;;;9.70;59.33;97758.59;10515494;28;20496;-61
2024/01/03 06:13:14;;;;;;;1.70;0.70;;;;;;;9.64;59.32;97758.16;10515354;28;20113;-61
2024/01/03 06:18:16;;;;;;;5.15;1.00;;;;;;;9.75;59.48;97761.63;10515044;28;21033;-62
2024/01/03 06:23:18;;;;;;;1.85;0.68;;;;;;;9.69;59.97;97768.19;10514884;28;20086;-61
2024/01/03 06:28:21;;;;;;;3.03;1.55;;;;;;;9.70;60.07;97755.97;10514977;28;20125;-61
2024/01/03 06:33:23;;;;;;;2.58;0.93;;;;;;;9.49;60.73;97772.56;10514119;28;20139;-62
2024/01/03 06:38:25;;;;;;;1.88;1.00;;;;;;;9.59;60.52;97789.03;10514318;28;20048;-62
2024/01/03 06:43:27;;;;;;;4.82;1.38;;;;;;;9.57;60.67;97788.38;10512889;28;20054;-64
2024/01/03 06:48:29;;;;;;;2.05;1.10;;;;;;;9.51;60.74;97791.53;10514434;28;20044;-62
2024/01/03 06:53:32;;;;;;;3.28;0.95;;;;;;;9.41;60.94;97772.44;10496205;28;20044;-61
2024/01/03 06:58:34;;;;;;;7.80;1.10;;;;;;;9.47;61.17;97758.00;10513876;28;20389;-62
2024/01/03 07:03:36;;;;;;;4.65;0.88;;;;;;;9.40;61.92;97760.34;10513341;28;20081;-61
2024/01/03 07:08:38;;;;;;;4.35;1.20;;;;;;;9.60;61.90;97761.16;10494637;28;20044;-62
2024/01/03 07:13:40;;;;;;;1.48;0.73;;;;;;;9.47;62.53;97758.84;10512135;28;20055;-63
2024/01/03 07:18:42;;;;;;;2.47;1.08;;;;;;;9.52;62.47;97772.28;10495274;28;20113;-61
2024/01/03 07:23:44;;;;;;;6.70;1.60;;;;;;;9.47;63.37;97771.88;10496033;28;20044;-62
2024/01/03 07:28:47;;;;;;;3.63;0.85;;;;;;;9.45;63.22;97770.38;10513696;28;20594;-62
2024/01/03 07:33:49;;;;;;;2.70;1.30;;;;;;;9.31;63.51;97768.16;10493854;28;20085;-62
2024/01/03 07:38:51;;;;;;;3.63;1.30;;;;;;;9.20;64.09;97782.13;10512537;28;20054;-62
2024/01/03 07:43:53;;;;;;;2.72;1.15;;;;;;;9.25;63.96;97792.19;10512767;28;20063;-61
2024/01/03 07:48:55;;;;;;;2.72;1.00;;;;;;;9.19;64.42;97809.19;10513060;28;20044;-62
2024/01/03 07:53:57;;;;;;;2.63;0.75;;;;;;;9.19;64.71;97792.72;10509201;28;20037;-62
2024/01/03 07:58:59;;;;;;;1.35;0.57;;;;;;;8.99;65.30;97781.44;10494147;28;20048;-62
2024/01/03 08:04:04;;;;;;;1.67;0.90;;;;;;;9.00;65.39;97790.88;10511767;28;20039;-62
2024/01/03 08:09:06;;;;;;;0.50;0.50;;;;;;;8.98;66.00;97760.69;10512861;28;20032;-61
2024/01/03 08:14:08;;;;;;;1.65;0.90;;;;;;;9.13;65.46;97770.63;10513125;28;20055;-61
2024/01/03 08:19:10;;;;;;;1.42;0.77;;;;;;;9.16;65.74;97778.16;10495556;28;20044;-62
2024/01/03 08:24:12;;;;;;;1.45;0.90;;;;;;;9.22;65.94;97769.78;10519888;28;20110;-62
2024/01/03 08:29:15;;;;;;;2.58;0.95;;;;;;;9.18;66.41;97768.41;10501847;28;20043;-62
2024/01/03 08:34:17;;;;;;;1.63;0.70;;;;;;;9.17;66.21;97745.09;10513130;28;20177;-62
2024/01/03 08:39:20;;;;;;;2.28;0.70;;;;;;;9.33;66.10;97751.41;10518034;28;20071;-62
2024/01/03 08:44:22;;;;;;;1.23;0.50;;;;;;;9.32;66.38;97738.53;10517923;28;21183;-63
2024/01/03 08:49:24;;;;;;;5.05;1.02;;;;;;;9.47;65.49;97711.88;10518460;28;20364;-62
2024/01/03 08:54:26;;;;;;;2.88;0.85;;;;;;;9.60;64.58;97685.50;10501015;28;20523;-62
2024/01/03 08:59:28;;;;;;;5.15;1.17;;;;;;;9.79;63.97;97697.72;10500864;28;20075;-63
2024/01/03 09:04:30;;;;;;;2.80;1.00;;;;;;;9.94;62.78;97715.41;10513924;28;20043;-63
2024/01/03 09:09:32;;;;;;;3.38;1.08;;;;;;;10.04;62.22;97720.59;10516804;28;20040;-62
2024/01/03 09:14:34;;;;;;;0.98;0.85;;;;;;;10.10;61.86;97767.03;10515738;28;20047;-62
2024/01/03 09:19:37;;;;;;;2.45;1.33;;;;;;;10.34;61.71;97778.66;10513411;28;20071;-62
2024/01/03 09:24:40;;;;;;;2.65;0.95;;;;;;;10.39;60.87;97807.81;10495235;28;20510;-62
2024/01/03 09:29:42;;;;;;;2.38;0.98;;;;;;;10.56;60.40;97815.88;10513205;28;20134;-62
2024/01/03 09:34:44;;;;;;;0.98;0.65;;;;;;;10.69;59.86;97806.72;10494966;28;20032;-68
2024/01/03 09:39:46;;;;;;;2.85;0.88;;;;;;;10.99;59.28;97814.31;10510742;28;20044;-68
2024/01/03 09:44:50;;;;;;;0.55;0.55;;;;;;;10.90;59.47;97830.88;10511498;28;20048;-68
2024/01/03 09:49:52;;;;;;;1.15;0.50;;;;;;;10.78;59.65;97836.44;10512578;28;20052;-68
2024/01/03 09:54:54;;;;;;;2.40;0.77;;;;;;;10.56;59.58;97842.84;10512094;28;20127;-68
2024/01/03 09:59:58;;;;;;;6.78;1.40;;;;;;;10.77;59.74;97853.91;10511611;28;20036;-68
2024/01/03 10:05:01;;;;;;;3.60;1.33;;;;;;;10.77;59.55;97853.91;10509393;28;20374;-68
2024/01/03 10:10:04;;;;;;;2.83;0.82;;;;;;;10.96;59.48;97850.41;10505044;28;20065;-68
2024/01/03 10:15:16;;;;;;;3.30;1.02;;;;;;;11.04;59.02;97861.81;10467305;28;20147;-68
2024/01/03 10:20:27;;;;;;;2.45;0.75;;;;;;;11.11;58.80;97867.31;10507960;28;20047;-68
2024/01/03 10:25:29;;;;;;;3.95;1.00;;;;;;;11.05;59.31;97871.28;10508759;28;20148;-68
2024/01/03 10:30:31;;;;;;;3.38;1.02;;;;;;;10.79;59.15;97862.44;10526456;28;20115;-68
2024/01/03 10:35:35;;;;;;;3.28;0.98;;;;;;;10.65;58.96;97867.28;10511365;28;20510;-67
2024/01/03 10:40:39;;;;;;;2.05;1.30;;;;;;;10.38;60.09;97886.31;10510329;28;20068;-67
2024/01/03 10:45:41;;;;;;;4.15;1.63;;;;;;;9.87;61.30;97867.53;10508824;28;20130;-67
2024/01/03 10:50:43;;;;;;;2.67;1.02;;;;;;;9.70;62.47;97881.25;10508439;28;20074;-67
2024/01/03 10:55:47;;;;;;;2.42;0.52;;;;;;;9.55;62.71;97876.41;10511232;28;20051;-67
2024/01/03 11:00:57;;;;;;;1.48;0.88;;;;;;;9.65;63.41;97877.22;10510074;28;20106;-67
2024/01/03 11:06:29;;;;;;;1.83;1.15;;;;;;;9.77;63.61;97874.53;10507755;28;20056;-67
2024/01/03 11:11:36;;;;;;;0.47;0.47;;;;;;;9.91;63.39;97871.53;10509422;28;20047;-68
2024/01/03 11:16:40;;;;;;;2.30;0.82;;;;;;;9.74;63.52;97856.53;10510155;28;20044;-67
2024/01/03 11:21:44;;;;;;;1.20;0.63;;;;;;;9.65;63.47;97851.13;10489497;28;20047;-67
2024/01/03 11:26:52;;;;;;;9.65;1.77;;;;;;;9.56;64.36;97858.97;10509241;28;20044;-67
2024/01/03 11:31:56;;;;;;;2.63;0.75;;;;;;;9.59;64.06;97867.34;10508303;28;20052;-67
2024/01/03 11:36:57;;;;;;;4.28;0.93;;;;;;;9.56;63.74;97854.53;10492809;28;20135;-67
2024/01/03 11:42:00;;;;;;;6.10;1.05;;;;;;;9.70;63.24;97869.03;10490741;28;20044;-67
2024/01/03 11:47:04;;;;;;;2.88;1.15;;;;;;;10.01;62.47;97860.09;10510152;28;20047;-67
2024/01/03 11:52:06;;;;;;;2.30;1.00;;;;;;;10.16;61.53;97844.81;10486212;28;20055;-67
2024/01/03 11:57:09;;;;;;;3.33;1.10;;;;;;;10.37;61.44;97833.25;10517119;28;20101;-67
2024/01/03 12:02:12;;;;;;;6.10;1.45;;;;;;;10.20;61.32;97835.75;10515244;28;20052;-68
2024/01/03 12:07:14;;;;;;;2.85;0.98;;;;;;;10.28;60.37;97830.66;10518170;28;20580;-67
2024/01/03 12:12:18;;;;;;;4.30;1.80;;;;;;;10.42;60.61;97838.88;10510711;28;20043;-67
2024/01/03 12:17:24;;;;;;;4.75;1.02;;;;;;;10.59;59.98;97824.25;10514524;28;20040;-68
2024/01/03 12:22:26;;;;;;;5.53;1.75;;;;;;;10.63;59.72;97820.38;10515774;28;20476;-67
2024/01/03 12:27:30;;;;;;;8.07;1.80;;;;;;;10.63;59.73;97816.94;10497790;28;20131;-68
2024/01/03 12:32:35;;;;;;;4.78;1.20;;;;;;;10.68;59.34;97817.34;10510353;28;20047;-68
2024/01/03 12:37:49;;;;;;;5.90;1.60;;;;;;;10.88;58.63;97801.44;10516362;28;20131;-68
2024/01/03 12:42:53;;;;;;;4.75;1.30;;;;;;;11.16;58.90;97795.25;10514617;28;20068;-67
2024/01/03 12:47:55;;;;;;;3.00;1.63;;;;;;;11.38;58.38;97790.59;10516265;28;20040;-67
2024/01/03 12:52:57;;;;;;;4.53;1.30;;;;;;;11.12;56.45;97790.47;10514472;28;20071;-68
2024/01/03 12:57:59;;;;;;;3.30;1.08;;;;;;;11.29;56.88;97785.25;10517879;28;20139;-68
2024/01/03 13:03:02;;;;;;;1.80;0.80;;;;;;;11.24;56.41;97790.09;10518161;28;20425;-67
2024/01/03 13:08:04;;;;;;;6.57;1.50;;;;;;;11.18;57.03;97795.94;10517656;28;20654;-67
2024/01/03 13:13:07;;;;;;;4.68;0.90;;;;;;;11.00;57.61;97789.81;10518096;28;21104;-67
2024/01/03 13:18:09;;;;;;;3.67;1.20;;;;;;;10.99;57.37;97793.38;10535597;27;20105;-68
2024/01/03 13:23:12;;;;;;;2.30;1.30;;;;;;;11.03;57.63;97802.56;10517589;28;20036;-69
2024/01/03 13:28:15;;;;;;;6.25;1.15;;;;;;;10.72;58.03;97793.41;10518788;28;20065;-68
2024/01/03 13:33:17;;;;;;;2.45;1.13;;;;;;;10.80;58.47;97772.56;10518100;28;20496;-67
2024/01/03 13:38:20;;;;;;;1.02;0.63;;;;;;;10.51;59.05;97771.88;10500272;28;20051;-67
2024/01/03 13:43:22;;;;;;;2.03;1.08;;;;;;;10.45;59.93;97768.03;10516632;28;20048;-67
2024/01/03 13:48:24;;;;;;;2.17;0.93;;;;;;;10.54;60.02;97758.53;10517643;28;20039;-67
2024/01/03 13:53:26;;;;;;;3.55;1.05;;;;;;;10.38;61.14;97781.81;10516810;28;20051;-68
2024/01/03 13:58:28;;;;;;;1.63;0.77;;;;;;;10.33;61.44;97750.91;10516846;28;20136;-67
2024/01/03 14:03:31;;;;;;;2.05;1.35;;;;;;;10.19;61.97;97763.59;10516671;28;20040;-68
2024/01/03 14:08:33;;;;;;;1.70;0.70;;;;;;;10.14;62.57;97745.72;10516176;28;20087;-67
2024/01/03 14:13:36;;;;;;;1.50;0.65;;;;;;;10.40;62.44;97740.69;10516692;28;20066;-67
2024/01/03 14:18:38;;;;;;;2.67;0.75;;;;;;;10.47;62.04;97728.69;10515782;28;20044;-67
2024/01/03 14:23:41;;;;;;;3.80;1.02;;;;;;;10.20;62.54;97715.59;10516147;28;20423;-66
2024/01/03 14:28:43;;;;;;;5.07;1.63;;;;;;;10.24;62.39;97714.34;10516271;28;20036;-67
2024/01/03 14:33:45;;;;;;;2.67;1.02;;;;;;;10.17;62.06;97713.28;10515935;28;20126;-67
2024/01/03 14:38:47;;;;;;;2.53;0.95;;;;;;;10.19;62.20;97712.19;10514100;28;20062;-67
2024/01/03 14:43:58;;;;;;;4.78;1.48;;;;;;;10.31;61.88;97718.88;10481205;28;20466;-66
2024/01/03 14:49:01;;;;;;;4.95;1.23;;;;;;;10.22;61.78;97718.88;10515970;28;20040;-67
2024/01/03 14:54:03;;;;;;;6.35;1.38;;;;;;;10.27;61.41;97695.78;10515302;28;20039;-67
2024/01/03 14:59:06;;;;;;;2.33;0.70;;;;;;;10.25;61.18;97703.75;10515231;28;20093;-67
2024/01/03 15:04:08;;;;;;;5.63;0.93;;;;;;;10.46;60.91;97716.63;10514186;28;20122;-68
2024/01/03 15:09:11;;;;;;;3.72;1.13;;;;;;;10.38;60.35;97712.09;10496470;28;20044;-67
2024/01/03 15:14:13;;;;;;;2.95;1.30;;;;;;;10.18;60.45;97718.34;10530772;28;20571;-67
2024/01/03 15:19:17;;;;;;;5.13;1.55;;;;;;;10.27;60.35;97706.22;10514518;28;20098;-67
2024/01/03 15:24:19;;;;;;;3.35;0.90;;;;;;;10.29;60.41;97706.91;10513844;28;20040;-67
2024/01/03 15:29:21;;;;;;;6.43;1.55;;;;;;;10.38;60.29;97703.41;10519674;28;20044;-66
2024/01/03 15:34:27;;;;;;;2.90;0.95;;;;;;;10.46;60.15;97693.09;10522821;28;20044;-67
2024/01/03 15:39:29;;;;;;;1.48;0.88;;;;;;;10.44;59.95;97695.00;10521885;28;20074;-66
2024/01/03 15:44:31;;;;;;;4.25;1.23;;;;;;;10.40;60.39;97693.63;10523076;28;20507;-67
2024/01/03 15:49:34;;;;;;;3.78;1.50;;;;;;;10.43;60.08;97688.97;10504350;28;20759;-67
2024/01/03 15:54:37;;;;;;;3.58;0.77;;;;;;;10.30;60.06;97683.25;10521955;28;20070;-66
2024/01/03 15:59:48;;;;;;;2.85;1.20;;;;;;;10.21;59.89;97702.41;10502552;28;20548;-66
2024/01/03 16:04:50;;;;;;;3.80;1.38;;;;;;;10.13;61.04;97709.31;10522045;28;20117;-66
2024/01/03 16:09:52;;;;;;;3.30;1.33;;;;;;;10.05;61.45;97715.25;10521949;28;20036;-63
2024/01/03 16:14:56;;;;;;;1.60;0.73;;;;;;;9.80;63.00;97725.47;10534964;27;20046;-63
2024/01/03 16:19:59;;;;;;;3.47;1.27;;;;;;;9.76;62.74;97700.59;10535238;27;20059;-63
2024/01/03 16:25:10;;;;;;;1.27;0.73;;;;;;;9.56;63.00;97708.41;10503341;28;20056;-63
2024/01/03 16:30:14;;;;;;;0.75;0.55;;;;;;;9.32;63.13;97702.81;10522098;28;20942;-63
2024/01/03 16:35:16;;;;;;;2.22;0.70;;;;;;;9.24;62.90;97694.84;10521162;28;20051;-63
2024/01/03 16:40:19;;;;;;;0.68;0.55;;;;;;;9.11;63.01;97698.69;10520927;28;20537;-63
2024/01/03 16:45:22;;;;;;;3.10;0.75;;;;;;;9.10;62.96;97713.50;10521669;28;20059;-63
2024/01/03 16:50:25;;;;;;;1.25;0.60;;;;;;;9.08;62.78;97705.00;10521234;28;20040;-63
2024/01/03 16:55:27;;;;;;;1.70;1.15;;;;;;;9.06;62.71;97706.91;10519121;28;20059;-63
2024/01/03 17:00:29;;;;;;;2.38;0.60;;;;;;;9.12;62.42;97708.16;10520292;28;20044;-63
2024/01/03 17:05:31;;;;;;;1.40;0.75;;;;;;;9.04;62.68;97708.84;10517474;28;20044;-63
2024/01/03 17:10:33;;;;;;;2.35;1.17;;;;;;;9.01;62.70;97713.50;10519333;28;20044;-63
2024/01/03 17:15:40;;;;;;;2.05;0.85;;;;;;;9.06;62.75;97706.09;10518977;28;20105;-63
2024/01/03 17:20:42;;;;;;;2.67;0.88;;;;;;;9.15;62.18;97697.47;10519307;28;20050;-62
2024/01/03 17:25:44;;;;;;;2.28;0.85;;;;;;;9.09;61.99;97704.06;10517934;28;20044;-63
2024/01/03 17:30:46;;;;;;;1.85;0.73;;;;;;;9.03;62.41;97701.16;10500541;28;20055;-62
2024/01/03 17:35:48;;;;;;;0.50;0.47;;;;;;;9.05;62.22;97704.44;10519278;28;20072;-63
2024/01/03 17:40:50;;;;;;;2.17;0.40;;;;;;;8.93;62.89;97700.31;10518075;28;20133;-63
2024/01/03 17:45:52;;;;;;;2.13;1.10;;;;;;;8.88;63.16;97695.50;10518468;28;20052;-63
2024/01/03 17:50:54;;;;;;;1.65;0.85;;;;;;;8.67;64.16;97699.97;10514353;28;20147;-63
2024/01/03 17:55:58;;;;;;;0.52;0.50;;;;;;;8.71;64.12;97711.78;10498142;28;20181;-63
2024/01/03 18:01:00;;;;;;;4.05;1.48;;;;;;;8.61;64.65;97709.16;10515980;28;20083;-63
2024/01/03 18:06:05;;;;;;;2.10;0.60;;;;;;;8.61;64.69;97700.53;10499328;28;20442;-63
2024/01/03 18:11:07;;;;;;;1.05;0.63;;;;;;;8.64;64.98;97688.06;10531817;28;20101;-62
2024/01/03 18:16:09;;;;;;;6.78;2.67;;;;;;;8.64;64.75;97685.47;10516586;28;20721;-63
2024/01/03 18:21:11;;;;;;;4.07;1.40;;;;;;;8.57;65.11;97696.53;10517292;28;20123;-63
2024/01/03 18:26:13;;;;;;;1.67;1.00;;;;;;;8.70;64.67;97707.56;10515953;28;20043;-63
2024/01/03 18:31:17;;;;;;;3.40;1.40;;;;;;;8.60;64.75;97706.72;10516892;28;20036;-63
2024/01/03 18:36:20;;;;;;;2.78;1.10;;;;;;;8.57;64.87;97714.78;10515929;28;20056;-64
2024/01/03 18:41:22;;;;;;;1.08;0.98;;;;;;;8.63;64.63;97725.50;10515496;28;20124;-63
2024/01/03 18:46:24;;;;;;;1.48;0.80;;;;;;;8.66;64.46;97719.19;10497703;28;20126;-63
2024/01/03 18:51:26;;;;;;;2.95;1.58;;;;;;;8.58;64.24;97726.84;10514894;28;20120;-63
2024/01/03 18:56:28;;;;;;;3.10;1.17;;;;;;;8.70;64.11;97723.19;10515264;28;20043;-63
2024/01/03 19:01:30;;;;;;;2.25;1.23;;;;;;;8.83;64.05;97727.19;10515268;28;20048;-64
2024/01/03 19:06:32;;;;;;;2.50;0.70;;;;;;;8.74;64.19;97741.03;10514626;28;20404;-63
2024/01/03 19:11:34;;;;;;;1.35;0.65;;;;;;;8.88;63.82;97739.81;10514642;28;20044;-63
2024/01/03 19:16:36;;;;;;;1.60;0.80;;;;;;;8.88;63.87;97744.19;10512509;28;20048;-63
2024/01/03 19:21:38;;;;;;;0.93;0.55;;;;;;;8.75;63.82;97749.69;10495364;28;20190;-63
2024/01/03 19:26:40;;;;;;;1.00;0.60;;;;;;;8.85;63.70;97732.28;10488778;28;20101;-63
2024/01/03 19:31:43;;;;;;;2.65;1.27;;;;;;;8.83;63.89;97737.63;10515408;28;20074;-63
2024/01/03 19:36:48;;;;;;;17.75;5.07;;;;;;;8.80;63.60;97716.22;10503705;28;20110;-63
2024/01/03 19:41:52;;;;;;;9.07;3.53;;;;;;;8.63;63.62;97745.50;10494947;28;20048;-64
2024/01/03 19:46:55;;;;;;;7.65;2.78;;;;;;;8.59;63.62;97750.16;10513293;28;20043;-64
2024/01/03 19:51:56;;;;;;;3.78;1.73;;;;;;;8.39;63.75;97758.88;10512514;28;20063;-64
2024/01/03 19:56:59;;;;;;;1.92;1.17;;;;;;;8.48;63.68;97763.31;10494927;28;20040;-64
2024/01/03 20:02:03;;;;;;;3.88;1.20;;;;;;;8.55;63.29;97771.41;10495975;28;20507;-63
2024/01/03 20:07:05;;;;;;;1.90;0.98;;;;;;;8.49;63.42;97770.16;10513840;28;20101;-64
2024/01/03 20:12:08;;;;;;;1.42;0.77;;;;;;;8.60;63.13;97782.25;10512683;28;20101;-64
2024/01/03 20:17:10;;;;;;;2.00;0.50;;;;;;;8.45;63.23;97781.78;10518713;28;20052;-64
2024/01/03 20:22:12;;;;;;;0.70;0.70;;;;;;;8.40;63.43;97793.56;10517766;28;20040;-65
2024/01/03 20:27:15;;;;;;;5.47;2.10;;;;;;;8.56;62.96;97792.13;10519397;28;20536;-64
2024/01/03 20:32:17;;;;;;;1.15;0.80;;;;;;;8.56;63.05;97796.50;10499083;28;20055;-64
2024/01/03 20:37:20;;;;;;;0.93;0.70;;;;;;;8.51;62.91;97786.47;10517105;28;20550;-64
2024/01/03 20:42:22;;;;;;;2.00;0.75;;;;;;;8.49;63.02;97796.19;10500646;28;20040;-63
2024/01/03 20:47:24;;;;;;;3.00;1.02;;;;;;;8.43;63.06;97799.31;10520101;28;20243;-64
2024/01/03 20:52:26;;;;;;;1.05;0.73;;;;;;;8.37;63.14;97799.84;10515085;28;20059;-63
2024/01/03 20:57:29;;;;;;;0.80;0.60;;;;;;;8.33;63.07;97821.06;10519757;28;20071;-64
2024/01/03 21:02:31;;;;;;;1.48;0.55;;;;;;;8.45;62.89;97807.84;10519904;28;20070;-63
2024/01/03 21:07:34;;;;;;;0.40;0.40;;;;;;;8.47;63.08;97818.94;10500008;28;20052;-64
2024/01/03 21:12:36;;;;;;;0.90;0.85;;;;;;;8.42;62.95;97813.31;10518606;28;20051;-63
2024/01/03 21:17:38;;;;;;;1.98;0.98;;;;;;;8.24;63.41;97819.25;10518839;28;20048;-64
2024/01/03 21:22:40;;;;;;;0.60;0.43;;;;;;;8.30;63.22;97822.16;10518993;28;20493;-63
2024/01/03 21:27:42;;;;;;;3.97;1.58;;;;;;;8.25;63.47;97832.13;10516796;28;20128;-63
2024/01/03 21:32:52;;;;;;;0.65;0.60;;;;;;;8.47;62.95;97821.56;10514248;28;20051;-63
2024/01/03 21:37:54;;;;;;;3.70;1.30;;;;;;;8.51;62.80;97827.31;10517980;28;20063;-64
2024/01/03 21:42:57;;;;;;;0.45;0.45;;;;;;;8.50;62.79;97829.13;10515774;28;20067;-64
2024/01/03 21:47:59;;;;;;;0.60;0.50;;;;;;;8.47;62.91;97844.16;10514914;28;20060;-63
2024/01/03 21:53:01;;;;;;;1.25;0.40;;;;;;;8.51;62.63;97837.75;10514660;28;20051;-64
2024/01/03 21:58:03;;;;;;;2.65;0.68;;;;;;;8.61;62.45;97830.78;10516795;28;20054;-63
2024/01/03 22:03:06;;;;;;;1.35;0.98;;;;;;;8.53;61.94;97843.66;10516896;28;20079;-63
2024/01/03 22:08:08;;;;;;;0.70;0.63;;;;;;;8.51;61.88;97849.00;10518368;28;20070;-63
2024/01/03 22:13:14;;;;;;;1.00;0.52;;;;;;;8.39;61.68;97843.97;10515490;28;20040;-63
2024/01/03 22:18:16;;;;;;;1.60;0.73;;;;;;;8.41;61.73;97855.94;10499462;28;20564;-63
2024/01/03 22:23:18;;;;;;;0.32;0.32;;;;;;;8.46;61.90;97864.19;10514981;28;20393;-63
2024/01/03 22:28:25;;;;;;;1.90;0.63;;;;;;;8.53;61.85;97864.50;10498166;28;20535;-63
2024/01/03 22:33:27;;;;;;;0.35;0.32;;;;;;;8.57;61.98;97871.09;10516047;28;20040;-63
2024/01/03 22:38:29;;;;;;;0.20;0.20;;;;;;;8.61;61.62;97867.28;10515257;28;20051;-62
2024/01/03 22:43:32;;;;;;;0.70;0.70;;;;;;;8.67;61.58;97859.75;10512968;28;20047;-63
2024/01/03 22:48:35;;;;;;;0.40;0.40;;;;;;;8.71;61.35;97862.94;10494667;28;20051;-63
2024/01/03 22:53:38;;;;;;;0.38;0.30;;;;;;;8.80;61.21;97873.41;10505020;28;20143;-63
2024/01/03 22:58:40;;;;;;;1.02;0.40;;;;;;;8.77;61.32;97867.66;10512476;28;20055;-62
2024/01/03 23:03:42;;;;;;;0.57;0.50;;;;;;;8.80;61.25;97883.00;10510413;28;20510;-63
2024/01/03 23:08:44;;;;;;;0.20;0.20;;;;;;;8.74;60.91;97896.56;10514536;28;20052;-62
2024/01/03 23:13:46;;;;;;;1.25;0.45;;;;;;;8.80;60.96;97894.28;10497365;28;20044;-63
2024/01/03 23:18:48;;;;;;;0.50;0.30;;;;;;;8.68;61.63;97884.06;10515233;28;20048;-64
2024/01/03 23:23:51;;;;;;;0.80;0.50;;;;;;;8.60;62.00;97889.09;10514318;28;20051;-62
2024/01/03 23:28:53;;;;;;;0.30;0.30;;;;;;;8.46;62.71;97879.81;10514494;28;20056;-62
2024/01/03 23:33:56;;;;;;;0.93;0.60;;;;;;;8.37;62.68;97877.16;10513596;28;20674;-63
2024/01/03 23:38:58;;;;;;;2.05;0.63;;;;;;;8.21;62.89;97874.16;10474046;28;1178528;-63
2024/01/03 23:44:00;;;;;;;0.63;0.63;;;;;;;8.16;62.80;97895.38;10515704;28;20044;-62